Portada
METAR-TAF:

METAR-TAF

Aeropuertos :

Aeropuerto de Reus

Reus, España

latitud: 41-09N, longitud: 001-10E, altitud: 71 m

Observación

El informe se hizo hace 43 minutos, a las 01:00 UTC
Viento 3 kt del norte-noreste, variando entre norte-noroeste y noreste
Temperatura 5°C
Humedad 100%
Presión 1023 hPa
Visibilidad: 9000 m

METAR: LERS 240100Z AUTO 02003KT 340V050 9000 NCD 05/05 Q1023

Hora: 02:43 (01:43 UTC)

Pronóstico

El informe se hizo hace 5 horas y 43 minutos, a las 20:00 UTC
Pronóstico válido del 23 a las 21 UTC al 24 a las 21 UTC
Viento 4 kt con dirección variable
Visibilidad 10 km o más
Escasas nubes a una altura de 2500 ft
Probabilidad 40% :
Temporalmente
del 23 a las 21 UTC al 24 a las 07 UTC
Visibilidad: 4000 m
Cielo nuboso a una altura de 900 ft
neblina

TAF: LERS 232000Z 2321/2421 VRB04KT 9999 FEW025 TX15/2412Z TN04/2406Z PROB40 TEMPO 2321/2407 4000 BR BKN009

Observaciones y pronósticos meteorológicos de más de 4000 aeropuertos (mensajes METAR y TAF).

Los puntos amarillos y rojos representan las estaciones disponibles.

Ponga el ratón en el punto deseado para ver el nombre de la estación.

Haga clic para ver las observaciones y los pronósticos meteorológicos.

Para cambiar el mapa : haga clic en los botones verdes con una cruz de color negro para hacer un zoom, en el botón verde con un guión para alejar o en las flechas verdes para mapas adyacentes.


METAR-TAF: